FXMM/MSU METAR and TAF weather

Enter ICAO airport designator
Station Type Date Time Source
FXMM METAR 2022/06/25 14:00 UTC NOAA

FXMM 251400Z 26006KT 9999 FEW020 14/01 Q1029 NOSIG


Station Type Date Time Source
FXMM Decoded METAR 2022/06/25 14:00 UTC NOAA

Maseru / Moshoeshoe, Lesotho (FXMM) 29-27S 027-33E
Jun 25, 2022 - 10:00 AM EDT / 2022.06.25 1400 UTC
Wind: from the W (260 degrees) at 7 MPH (6 KT):0
Visibility: greater than 7 mile(s):0
Sky conditions: mostly clear
Temperature: 57 F (14 C)
Dew Point: 33 F (1 C)
Relative Humidity: 41%
Pressure (altimeter): 30.39 in. Hg (1029 hPa)
ob: FXMM 251400Z 26006KT 9999 FEW020 14/01 Q1029 NOSIG
cycle: 14

Station Type Date Time Source
FXMM TAF 2022/05/15 09:36 UTC NOAA

TAF TAF FXMM 150700Z 1509/1521 00000KT CAVOK
BECMG 1509/1511 18005KT
BECMG 1514/1516 00000KT

Example: see airport list